Seaside Park, NJ

7:48 PM EDT on August 25, 2019 (GMT -0400)
O Street | | Change Station
Active Advisory: Coastal Hazard Statement Active Notice: Coastal Hazard Statement

Elev 10 ft 39.93 °N, 74.08 °W | Updated 2 minutes ago

Mostly Cloudy
Mostly Cloudy
70.2 °F
Feels Like 75 °F
N
19
Wind Variable Wind from ENE
Gusts 24.0 mph

Today
High -- | Low -- °F
--% Chance of Precip.
Yesterday
High -- | Low -- °F
Precip. -- in
Pressure 30.22 in
Visibility 10.0 miles
Clouds Scattered Clouds 2700 ft
Mostly Cloudy 3700 ft
Heat Index 75 °F
Dew Point 58 °F
Humidity 66%
Rainfall 0.00 in
Snow Depth Not available.
6:17 AM 7:38 PM
Waning Crescent, 26% visible
SPECI KMJX 252331Z AUTO 06013G20KT 10SM SCT027 BKN037 20/16 A3022 RMK AO2
Pressure 30.22 in
Visibility 10.0 miles
Clouds Scattered Clouds 2700 ft
Mostly Cloudy 3700 ft
Heat Index 75 °F
Dew Point 58 °F
Humidity 66%
Rainfall 0.00 in
Snow Depth Not available.
6:17 AM 7:38 PM
Waning Crescent, 26% visible
SPECI KMJX 252331Z AUTO 06013G20KT 10SM SCT027 BKN037 20/16 A3022 RMK AO2

Get Your Daily Forecast Email!

Thanks for signing up!

Be on the lookout for a verification email in your inbox.

You'll start receiving severe weather alerts in your inbox..

×

10-Day Weather Forecast

Almanac

Astronomy

Aug. 25, 2019 Rise Set
Actual Time
Civil Twilight
Nautical Twilight
Astronomical Twilight
Moon
Length of Visible Light
Length of Day
Tomorrow will be .
, % of the Moon is Illuminated

Today's Extremes

State Highs State Lows

Community

WunderPhotos

Category 6

Welcome to Category 6. This is the collective home for Weather Underground's featured writeups by Dr. Jeff Masters (right), Bob Henson (left), Chris Burt, and other regular contributors.

Nearby

Air Quality

  Air Quality AQ Index Pollutant
Not available.

Snow Depth

Station Depth Elevation

Earthquake Activity

City Distance Mag. Time & Date
Minimum magnitude displayed is 2.5.

Coastal Water Temperatures

Place Temperature

Stations

Nearby Weather Stations

Station Location Temp. Windchill Dew Point Humidity Wind Precip. Elev Updated Type
                   

Watches & Warnings

Coastal Hazard Statement
Issued: 5:28 AM EDT Aug. 25, 2019 – National Weather Service

... High rip current risk remains in effect through this evening...

* locations... the New Jersey shore.

* Timing... through this evening.

* Surf zone impacts... very strong rip currents will be dangerous
to anyone who enters the surf.

Precautionary/preparedness actions...

Swim near a lifeguard. If caught in a rip current, relax and
float. Don't swim against the current. If able, swim in a
direction following the shoreline. If unable to escape, face the
shore and call or wave for help.



Cs